Grover, Colorado
Current Conditions -  °F | °C
As of 7:15 PM on Friday 28 Nov 2014 (Local Time) from K82V Reporting Station
Clear Clear  
Wind Chill: 39°   Ceiling: Unl
Heat Index: 43°   Visibility: 10mi
Dew Point: 18°   Wind: 7mph
Humidity: 36%   Direction: 250°WSW
Pressure: 29.81"   Gusts: NA
Location:  40.87°N, 104.23°W
Report Text: K82V 290215Z AUTO 25006KT 10SM CLR 06/M08 A2981 RMK AO2
Loading
Personal Weather Stations






























Interactive Weather Map New forecast layout! Learn more

10-Day Weather Forecast

Advertisements
Track Severe Weather on mobile